createdAt,value
2019-05-06T00:01:53.925Z,96.00
2019-05-06T00:04:24.710Z,95.80
2019-05-06T00:06:54.790Z,95.90
2019-05-06T00:09:24.214Z,95.80
2019-05-06T00:11:54.409Z,95.80
2019-05-06T00:14:23.659Z,95.80
2019-05-06T00:16:55.149Z,95.90
2019-05-06T00:19:24.725Z,96.00
2019-05-06T00:21:54.232Z,95.90
2019-05-06T00:24:25.170Z,95.90
2019-05-06T00:27:04.847Z,96.00
2019-05-06T00:29:35.042Z,96.10
2019-05-06T00:32:04.502Z,96.70
2019-05-06T00:34:34.101Z,96.50
2019-05-06T00:37:03.935Z,96.90
2019-05-06T00:39:44.381Z,97.00
2019-05-06T00:42:41.827Z,97.00
2019-05-06T00:45:10.851Z,97.30
2019-05-06T00:47:39.734Z,97.50
2019-05-06T00:50:09.102Z,97.60
2019-05-06T00:52:38.573Z,97.50
2019-05-06T00:55:07.787Z,97.40
2019-05-06T00:57:46.222Z,97.60
2019-05-06T01:00:19.708Z,97.70
2019-05-06T01:02:48.675Z,97.90
2019-05-06T01:05:17.809Z,98.00
2019-05-06T01:07:46.593Z,98.00
2019-05-06T01:10:16.160Z,98.30
2019-05-06T01:13:04.252Z,98.70
2019-05-06T01:15:34.373Z,98.60
2019-05-06T01:18:04.246Z,98.90
2019-05-06T01:20:33.949Z,98.80
2019-05-06T01:23:03.728Z,98.90
2019-05-06T01:25:34.575Z,98.70
2019-05-06T01:28:04.269Z,98.70
2019-05-06T01:30:33.793Z,98.90
2019-05-06T01:33:03.965Z,99.90
2019-05-06T01:35:35.069Z,99.50
2019-05-06T01:38:24.466Z,99.80
2019-05-06T01:41:24.407Z,99.90
2019-05-06T01:43:54.601Z,99.90
2019-05-06T01:46:24.386Z,99.90
2019-05-06T01:48:53.700Z,99.90
2019-05-06T01:51:24.155Z,99.90
2019-05-06T01:53:54.486Z,99.90
2019-05-06T01:56:24.185Z,99.90
2019-05-06T01:58:53.719Z,99.90
2019-05-06T02:01:24.886Z,99.90
2019-05-06T02:03:53.801Z,99.90
2019-05-06T02:06:24.780Z,99.90
2019-05-06T02:08:54.078Z,99.90
2019-05-06T02:11:24.121Z,99.90
2019-05-06T02:13:53.810Z,99.90
2019-05-06T02:16:24.068Z,99.90
2019-05-06T02:18:54.032Z,99.90
2019-05-06T02:21:40.892Z,99.90
2019-05-06T02:24:14.731Z,99.90
2019-05-06T02:26:43.742Z,99.90
2019-05-06T02:29:15.247Z,99.90
2019-05-06T02:32:16.075Z,99.90
2019-05-06T02:34:36.531Z,99.90
2019-05-06T02:37:14.916Z,99.90
2019-05-06T02:39:44.062Z,99.90
2019-05-06T02:42:13.408Z,99.90
2019-05-06T02:44:44.085Z,99.90
2019-05-06T02:47:26.698Z,99.90
2019-05-06T02:49:58.637Z,99.90
2019-05-06T02:52:27.454Z,99.90
2019-05-06T02:54:56.321Z,99.90
2019-05-06T02:57:25.134Z,99.90
2019-05-06T02:59:55.483Z,99.90
2019-05-06T03:02:37.912Z,99.90
2019-05-06T03:04:55.449Z,99.90
2019-05-06T03:07:24.269Z,99.90
2019-05-06T03:09:53.476Z,99.90
2019-05-06T03:12:23.009Z,99.90
2019-05-06T03:14:53.200Z,99.90
2019-05-06T03:17:23.438Z,99.90
2019-05-06T03:19:54.242Z,99.90
2019-05-06T03:22:36.440Z,99.90
2019-05-06T03:25:13.332Z,99.90
2019-05-06T03:28:03.969Z,99.90
2019-05-06T03:30:35.856Z,99.90
2019-05-06T03:33:31.266Z,99.90
2019-05-06T03:35:48.139Z,99.90
2019-05-06T03:38:03.955Z,99.90
2019-05-06T03:40:36.181Z,99.90
2019-05-06T03:43:03.563Z,99.90
2019-05-06T03:45:43.196Z,99.90
2019-05-06T03:48:19.979Z,99.90
2019-05-06T03:50:49.096Z,99.90
2019-05-06T03:53:18.257Z,99.90
2019-05-06T03:55:47.458Z,99.90
2019-05-06T03:58:18.092Z,99.90
2019-05-06T04:00:52.906Z,99.90
2019-05-06T04:03:33.767Z,99.90
2019-05-06T04:05:55.726Z,99.90
2019-05-06T04:08:24.313Z,99.90
2019-05-06T04:10:55.436Z,99.90
2019-05-06T04:13:24.273Z,99.90
2019-05-06T04:16:13.780Z,99.90
2019-05-06T04:18:47.449Z,99.90
2019-05-06T04:21:26.302Z,99.90
2019-05-06T04:24:00.108Z,99.90
2019-05-06T04:26:48.321Z,99.90
2019-05-06T04:29:17.346Z,99.80
2019-05-06T04:31:46.328Z,99.20
2019-05-06T04:34:19.350Z,99.00
2019-05-06T04:36:45.915Z,98.80
2019-05-06T04:39:14.680Z,99.10
2019-05-06T04:41:43.597Z,98.80
2019-05-06T04:44:13.821Z,98.70
2019-05-06T04:46:44.292Z,98.50
2019-05-06T04:49:15.108Z,98.20
2019-05-06T04:51:44.359Z,98.30
2019-05-06T04:54:13.656Z,98.20
2019-05-06T04:56:43.677Z,98.30
2019-05-06T04:59:13.966Z,98.30
2019-05-06T05:01:45.587Z,97.80
2019-05-06T05:04:26.948Z,97.60
2019-05-06T05:06:45.427Z,97.90
2019-05-06T05:09:17.298Z,97.80
2019-05-06T05:11:49.983Z,97.60
2019-05-06T05:14:46.573Z,97.20
2019-05-06T05:17:33.253Z,96.90
2019-05-06T05:20:02.262Z,97.10
2019-05-06T05:22:32.545Z,96.30
2019-05-06T05:25:03.413Z,96.10
2019-05-06T05:27:32.922Z,96.70
2019-05-06T05:30:02.299Z,96.30
2019-05-06T05:32:32.104Z,96.00
2019-05-06T05:35:02.041Z,95.70
2019-05-06T05:37:32.872Z,95.30
2019-05-06T05:40:02.998Z,94.90
2019-05-06T05:42:54.356Z,94.80
2019-05-06T05:45:23.309Z,94.50
2019-05-06T05:47:54.463Z,94.20
2019-05-06T05:50:32.560Z,94.20
2019-05-06T05:53:02.533Z,93.10
2019-05-06T05:55:33.045Z,92.40
2019-05-06T05:58:03.210Z,91.60
2019-05-06T06:00:33.969Z,91.50
2019-05-06T06:03:03.042Z,91.70
2019-05-06T06:05:32.995Z,92.00
2019-05-06T06:08:02.964Z,90.90
2019-05-06T06:10:42.621Z,91.10
2019-05-06T06:13:12.858Z,90.90
2019-05-06T06:15:56.490Z,89.40
2019-05-06T06:18:33.336Z,89.40
2019-05-06T06:21:27.283Z,88.90
2019-05-06T06:23:54.401Z,87.80
2019-05-06T06:26:23.298Z,86.80
2019-05-06T06:28:52.440Z,87.00
2019-05-06T06:31:42.675Z,85.90
2019-05-06T06:34:19.662Z,85.40
2019-05-06T06:37:06.576Z,83.60
2019-05-06T06:39:42.185Z,83.60
2019-05-06T06:42:12.666Z,83.20
2019-05-06T06:44:42.388Z,83.80
2019-05-06T06:47:12.957Z,84.80
2019-05-06T06:49:42.539Z,83.40
2019-05-06T06:52:14.793Z,83.30
2019-05-06T06:54:43.867Z,82.50
2019-05-06T06:57:38.623Z,80.80
2019-05-06T07:00:29.966Z,78.30
2019-05-06T07:03:03.199Z,78.80
2019-05-06T07:05:37.194Z,77.60
2019-05-06T07:08:06.133Z,76.40
2019-05-06T07:10:44.202Z,74.60
2019-05-06T07:13:14.350Z,74.60
2019-05-06T07:15:43.279Z,74.00
2019-05-06T07:18:13.521Z,71.70
2019-05-06T07:21:07.141Z,70.20
2019-05-06T07:23:36.329Z,73.80
2019-05-06T07:26:05.346Z,71.30
2019-05-06T07:28:34.981Z,69.20
2019-05-06T07:31:17.374Z,71.40
2019-05-06T07:33:34.788Z,71.20
2019-05-06T07:36:03.987Z,71.30
2019-05-06T07:38:32.903Z,70.00
2019-05-06T07:41:16.429Z,72.20
2019-05-06T07:43:52.654Z,71.10
2019-05-06T07:46:42.734Z,69.10
2019-05-06T07:49:12.632Z,69.60
2019-05-06T07:51:42.028Z,70.10
2019-05-06T07:54:12.250Z,70.30
2019-05-06T07:56:42.886Z,68.80
2019-05-06T07:59:12.751Z,69.00
2019-05-06T08:01:43.775Z,67.80
2019-05-06T08:04:13.359Z,65.90
2019-05-06T08:06:42.852Z,64.80
2019-05-06T08:09:12.957Z,61.70
2019-05-06T08:11:42.759Z,59.40
2019-05-06T08:14:13.059Z,59.60
2019-05-06T08:16:49.087Z,52.70
2019-05-06T08:19:17.939Z,49.90
2019-05-06T08:21:48.658Z,47.80
2019-05-06T08:24:17.519Z,46.90
2019-05-06T08:26:46.390Z,45.10
2019-05-06T08:29:16.065Z,43.30
2019-05-06T08:31:44.842Z,41.10
2019-05-06T08:34:13.933Z,42.40
2019-05-06T08:36:59.076Z,39.90
2019-05-06T08:39:28.002Z,41.20
2019-05-06T08:41:56.749Z,35.20
2019-05-06T08:44:25.603Z,35.00
2019-05-06T08:46:54.573Z,35.00
2019-05-06T08:49:23.449Z,34.80
2019-05-06T08:51:58.835Z,34.90
2019-05-06T08:54:43.333Z,34.80
2019-05-06T08:57:12.191Z,36.70
2019-05-06T08:59:42.381Z,34.30
2019-05-06T09:02:13.544Z,34.90
2019-05-06T09:04:42.709Z,36.60
2019-05-06T09:07:12.097Z,35.80
2019-05-06T09:09:42.121Z,37.90
2019-05-06T09:12:13.036Z,38.10
2019-05-06T09:14:43.017Z,36.40
2019-05-06T09:17:12.227Z,38.00
2019-05-06T09:19:42.720Z,38.40
2019-05-06T09:22:12.960Z,39.40
2019-05-06T09:24:42.632Z,38.90
2019-05-06T09:27:16.639Z,39.50
2019-05-06T09:29:52.181Z,39.80
2019-05-06T09:32:35.949Z,41.20
2019-05-06T09:35:04.971Z,41.10
2019-05-06T09:37:33.835Z,41.20
2019-05-06T09:40:02.999Z,40.90
2019-05-06T09:42:32.216Z,42.20
2019-05-06T09:45:02.245Z,42.60
2019-05-06T09:47:59.615Z,39.60
2019-05-06T09:50:46.454Z,40.00
2019-05-06T09:53:20.098Z,40.30
2019-05-06T09:56:06.966Z,41.00
2019-05-06T09:58:39.310Z,42.30
2019-05-06T10:01:08.353Z,40.10
2019-05-06T10:03:37.171Z,42.30
2019-05-06T10:06:06.125Z,41.40
2019-05-06T10:08:35.021Z,43.00
2019-05-06T10:11:03.988Z,43.20
2019-05-06T10:13:32.976Z,42.70
2019-05-06T10:16:03.001Z,43.70
2019-05-06T10:18:32.151Z,45.50
2019-05-06T10:21:00.963Z,44.50
2019-05-06T10:23:29.831Z,44.60
2019-05-06T10:25:58.604Z,45.50
2019-05-06T10:28:44.475Z,46.10
2019-05-06T10:31:15.561Z,45.70
2019-05-06T10:34:03.088Z,45.50
2019-05-06T10:36:45.546Z,46.00
2019-05-06T10:39:16.819Z,45.90
2019-05-06T10:41:48.872Z,47.10
2019-05-06T10:44:29.088Z,45.50
2019-05-06T10:46:57.985Z,43.60
2019-05-06T10:49:26.845Z,43.00
2019-05-06T10:52:21.876Z,42.50
2019-05-06T10:54:50.799Z,42.80
2019-05-06T10:57:27.818Z,44.20
2019-05-06T10:59:56.655Z,41.40
2019-05-06T11:02:47.318Z,42.50
2019-05-06T11:05:16.255Z,41.20
2019-05-06T11:07:45.085Z,40.10
2019-05-06T11:10:24.374Z,39.90
2019-05-06T11:12:44.584Z,39.20
2019-05-06T11:15:13.652Z,39.60
2019-05-06T11:17:43.627Z,41.20
2019-05-06T11:20:14.090Z,42.40
2019-05-06T11:22:43.704Z,41.80
2019-05-06T11:25:13.216Z,42.90
2019-05-06T11:27:45.213Z,41.40
2019-05-06T11:30:21.856Z,42.30
2019-05-06T11:32:58.688Z,37.90
2019-05-06T11:35:49.674Z,38.30
2019-05-06T11:38:19.418Z,39.70
2019-05-06T11:40:48.375Z,40.50
2019-05-06T11:43:17.248Z,40.50
2019-05-06T11:45:46.147Z,41.70
2019-05-06T11:48:15.454Z,40.00
2019-05-06T11:50:46.038Z,40.30
2019-05-06T11:53:14.815Z,41.50
2019-05-06T11:55:43.630Z,42.20
2019-05-06T11:58:30.140Z,41.90
2019-05-06T12:01:02.856Z,42.30
2019-05-06T12:03:32.668Z,42.10
2019-05-06T12:06:03.865Z,42.90
2019-05-06T12:08:32.801Z,44.90
2019-05-06T12:11:02.943Z,45.30
2019-05-06T12:13:33.740Z,48.00
2019-05-06T12:16:02.698Z,50.00
2019-05-06T12:18:31.593Z,53.00
2019-05-06T12:21:09.166Z,56.20
2019-05-06T12:23:34.889Z,58.40
2019-05-06T12:26:02.411Z,60.40
2019-05-06T12:28:32.674Z,62.40
2019-05-06T12:31:01.785Z,63.00
2019-05-06T12:33:38.538Z,63.90
2019-05-06T12:36:24.417Z,63.70
2019-05-06T12:39:15.778Z,64.30
2019-05-06T12:42:02.673Z,65.00
2019-05-06T12:44:33.764Z,63.70
2019-05-06T12:47:20.567Z,62.70
2019-05-06T12:49:49.504Z,62.10
2019-05-06T12:52:18.286Z,60.30
2019-05-06T12:54:47.163Z,59.80
2019-05-06T12:57:16.711Z,58.20
2019-05-06T12:59:45.512Z,57.50
2019-05-06T13:02:14.531Z,57.20
2019-05-06T13:04:55.299Z,58.30
2019-05-06T13:07:19.350Z,59.60
2019-05-06T13:09:48.130Z,58.80
2019-05-06T13:12:22.999Z,56.20
2019-05-06T13:14:52.706Z,56.90
2019-05-06T13:17:26.735Z,56.60
2019-05-06T13:19:55.759Z,53.20
2019-05-06T13:22:37.056Z,52.80
2019-05-06T13:25:06.427Z,54.30
2019-05-06T13:27:35.294Z,54.60
2019-05-06T13:30:05.638Z,53.30
2019-05-06T13:32:37.168Z,51.00
2019-05-06T13:35:06.187Z,50.70
2019-05-06T13:37:35.186Z,51.30
2019-05-06T13:40:04.448Z,49.00
2019-05-06T13:42:35.220Z,49.80
2019-05-06T13:45:04.370Z,49.50
2019-05-06T13:47:52.391Z,49.70
2019-05-06T13:50:24.748Z,48.00
2019-05-06T13:53:08.054Z,50.20
2019-05-06T13:55:26.095Z,49.00
2019-05-06T13:57:55.083Z,48.80
2019-05-06T14:00:23.991Z,44.90
2019-05-06T14:02:55.375Z,42.00
2019-05-06T14:05:24.343Z,40.10
2019-05-06T14:07:53.226Z,35.50
2019-05-06T14:10:22.370Z,35.20
2019-05-06T14:12:53.260Z,33.00
2019-05-06T14:15:23.239Z,30.00
2019-05-06T14:17:53.187Z,29.80
2019-05-06T14:20:22.502Z,26.20
2019-05-06T14:22:52.611Z,26.60
2019-05-06T14:25:44.323Z,26.80
2019-05-06T14:28:35.390Z,27.30
2019-05-06T14:31:09.161Z,28.80
2019-05-06T14:33:38.019Z,30.50
2019-05-06T14:36:07.007Z,33.60
2019-05-06T14:38:35.785Z,34.90
2019-05-06T14:41:13.120Z,35.90
2019-05-06T14:43:42.993Z,38.00
2019-05-06T14:46:11.922Z,38.80
2019-05-06T14:48:42.940Z,38.40
2019-05-06T14:51:13.031Z,40.60
2019-05-06T14:53:43.582Z,39.60
2019-05-06T14:56:22.590Z,42.00
2019-05-06T14:59:05.299Z,43.90
2019-05-06T15:01:36.284Z,46.20
2019-05-06T15:04:05.435Z,48.40
2019-05-06T15:06:34.931Z,49.80
2019-05-06T15:09:06.689Z,52.10
2019-05-06T15:11:35.614Z,56.00
2019-05-06T15:14:04.889Z,63.70
2019-05-06T15:16:34.006Z,70.20
2019-05-06T15:19:04.625Z,72.00
2019-05-06T15:21:38.500Z,74.60
2019-05-06T15:24:04.422Z,73.80
2019-05-06T15:26:33.836Z,74.90
2019-05-06T15:29:03.477Z,78.00
2019-05-06T15:31:45.344Z,78.00
2019-05-06T15:34:16.935Z,77.10
2019-05-06T15:36:58.567Z,76.30
2019-05-06T15:39:27.502Z,74.60
2019-05-06T15:41:56.366Z,73.40
2019-05-06T15:44:25.127Z,70.40
2019-05-06T15:46:53.910Z,67.80
2019-05-06T15:49:22.678Z,67.70
2019-05-06T15:51:52.367Z,66.80
2019-05-06T15:54:22.710Z,65.00
2019-05-06T15:56:53.292Z,64.40
2019-05-06T15:59:23.051Z,63.40
2019-05-06T16:01:53.141Z,64.90
2019-05-06T16:04:22.945Z,61.00
2019-05-06T16:06:52.903Z,59.50
2019-05-06T16:09:23.431Z,54.80
2019-05-06T16:11:53.447Z,55.00
2019-05-06T16:14:23.139Z,53.50
2019-05-06T16:16:52.756Z,55.20
2019-05-06T16:19:22.844Z,53.80
2019-05-06T16:21:52.508Z,54.40
2019-05-06T16:24:29.920Z,54.30
2019-05-06T16:26:58.797Z,53.60
2019-05-06T16:29:45.885Z,55.60
2019-05-06T16:32:14.631Z,56.60
2019-05-06T16:34:43.478Z,56.10
2019-05-06T16:37:12.747Z,55.40
2019-05-06T16:39:41.621Z,54.80
2019-05-06T16:42:12.850Z,54.70
2019-05-06T16:44:45.171Z,54.60
2019-05-06T16:47:19.720Z,55.80
2019-05-06T16:49:48.515Z,55.90
2019-05-06T16:52:17.315Z,55.20
2019-05-06T16:54:46.210Z,56.10
2019-05-06T16:57:18.683Z,56.20
2019-05-06T16:59:47.584Z,57.10
2019-05-06T17:02:22.960Z,56.80
2019-05-06T17:05:17.055Z,56.40
2019-05-06T17:07:46.261Z,57.20
2019-05-06T17:10:16.135Z,56.60
2019-05-06T17:12:45.070Z,57.80
2019-05-06T17:15:14.718Z,59.20
2019-05-06T17:17:46.987Z,59.50
2019-05-06T17:20:14.946Z,59.80
2019-05-06T17:22:43.755Z,60.10
2019-05-06T17:25:13.091Z,60.90
2019-05-06T17:27:43.575Z,61.10
2019-05-06T17:30:26.390Z,62.20
2019-05-06T17:32:59.127Z,63.00
2019-05-06T17:35:27.971Z,64.60
2019-05-06T17:38:11.226Z,65.00
2019-05-06T17:40:40.005Z,65.70
2019-05-06T17:43:08.982Z,65.90
2019-05-06T17:45:59.343Z,67.50
2019-05-06T17:48:43.420Z,68.20
2019-05-06T17:51:14.154Z,68.20
2019-05-06T17:53:45.579Z,69.80
2019-05-06T17:56:14.833Z,69.70
2019-05-06T17:58:43.899Z,70.80
2019-05-06T18:01:14.142Z,71.20
2019-05-06T18:03:43.109Z,71.50
2019-05-06T18:06:14.189Z,72.20
2019-05-06T18:08:43.214Z,72.70
2019-05-06T18:11:12.901Z,73.20
2019-05-06T18:13:42.061Z,73.90
2019-05-06T18:16:12.958Z,74.20
2019-05-06T18:18:41.466Z,74.40
2019-05-06T18:21:12.354Z,75.10
2019-05-06T18:23:41.100Z,75.40
2019-05-06T18:26:09.914Z,75.90
2019-05-06T18:28:38.718Z,75.80
2019-05-06T18:31:07.630Z,75.40
2019-05-06T18:33:36.411Z,75.60
2019-05-06T18:36:06.414Z,75.80
2019-05-06T18:38:35.386Z,76.00
2019-05-06T18:41:04.250Z,76.50
2019-05-06T18:43:33.580Z,76.90
2019-05-06T18:46:02.990Z,77.80
2019-05-06T18:48:35.045Z,77.80
2019-05-06T18:51:03.170Z,77.30
2019-05-06T18:53:33.267Z,77.30
2019-05-06T18:56:03.255Z,77.90
2019-05-06T18:58:32.638Z,78.50
2019-05-06T19:01:03.992Z,78.10
2019-05-06T19:03:39.745Z,78.40
2019-05-06T19:06:08.591Z,79.10
2019-05-06T19:08:52.880Z,79.00
2019-05-06T19:11:22.258Z,79.70
2019-05-06T19:13:52.715Z,79.40
2019-05-06T19:16:22.329Z,79.20
2019-05-06T19:18:52.257Z,80.10
2019-05-06T19:21:24.314Z,79.70
2019-05-06T19:23:51.933Z,79.70
2019-05-06T19:26:22.273Z,80.30
2019-05-06T19:28:52.666Z,80.80
2019-05-06T19:31:22.819Z,80.80
2019-05-06T19:33:52.615Z,81.20
2019-05-06T19:36:23.486Z,80.30
2019-05-06T19:38:52.227Z,80.90
2019-05-06T19:41:22.323Z,81.40
2019-05-06T19:43:52.389Z,81.50
2019-05-06T19:46:21.447Z,82.00
2019-05-06T19:48:52.274Z,81.80
2019-05-06T19:51:22.531Z,81.90
2019-05-06T19:53:51.458Z,82.10
2019-05-06T19:56:20.571Z,82.00
2019-05-06T19:58:49.338Z,81.90
2019-05-06T20:01:18.122Z,82.80
2019-05-06T20:03:47.035Z,82.20
2019-05-06T20:06:34.904Z,82.30
2019-05-06T20:09:43.485Z,82.00
2019-05-06T20:12:34.562Z,82.40
2019-05-06T20:15:21.780Z,83.00
2019-05-06T20:17:52.100Z,83.10
2019-05-06T20:20:22.894Z,83.50
2019-05-06T20:22:51.727Z,84.20
2019-05-06T20:25:22.077Z,84.70
2019-05-06T20:27:52.618Z,85.20
2019-05-06T20:30:21.979Z,84.90
2019-05-06T20:32:52.137Z,86.00
2019-05-06T20:35:22.345Z,86.20
2019-05-06T20:37:53.401Z,86.30
2019-05-06T20:40:22.956Z,86.30
2019-05-06T20:42:51.955Z,86.60
2019-05-06T20:45:22.411Z,87.30
2019-05-06T20:47:52.483Z,87.70
2019-05-06T20:50:22.616Z,88.20
2019-05-06T20:52:53.910Z,88.30
2019-05-06T20:55:23.043Z,88.00
2019-05-06T20:57:54.228Z,88.50
2019-05-06T21:00:23.640Z,88.40
2019-05-06T21:02:53.578Z,88.00
2019-05-06T21:05:22.919Z,88.30
2019-05-06T21:07:52.702Z,88.30
2019-05-06T21:10:22.197Z,88.20
2019-05-06T21:12:53.195Z,88.20
2019-05-06T21:15:22.922Z,87.70
2019-05-06T21:17:51.996Z,87.80
2019-05-06T21:20:21.049Z,87.60
2019-05-06T21:22:52.637Z,87.90
2019-05-06T21:25:22.595Z,87.80
2019-05-06T21:27:53.214Z,87.80
2019-05-06T21:30:23.090Z,87.90
2019-05-06T21:32:52.208Z,88.40
2019-05-06T21:35:22.256Z,88.60
2019-05-06T21:37:52.931Z,88.80
2019-05-06T21:40:22.323Z,89.00
2019-05-06T21:42:52.611Z,89.10
2019-05-06T21:45:22.202Z,89.00
2019-05-06T21:47:53.025Z,90.00
2019-05-06T21:50:22.823Z,88.90
2019-05-06T21:52:51.910Z,89.20
2019-05-06T21:55:22.749Z,89.30
2019-05-06T21:57:54.411Z,89.50
2019-05-06T22:00:43.173Z,90.00
2019-05-06T22:03:13.452Z,90.00
2019-05-06T22:05:42.739Z,90.30
2019-05-06T22:08:12.850Z,90.50
2019-05-06T22:10:42.395Z,90.90
2019-05-06T22:13:12.567Z,90.80
2019-05-06T22:15:42.222Z,91.10
2019-05-06T22:18:12.446Z,91.20
2019-05-06T22:20:59.663Z,91.40
2019-05-06T22:23:48.934Z,91.60
2019-05-06T22:26:17.963Z,91.80
2019-05-06T22:28:47.227Z,91.90
2019-05-06T22:31:16.259Z,92.40
2019-05-06T22:33:45.083Z,92.80
2019-05-06T22:36:14.055Z,93.30
2019-05-06T22:38:44.276Z,93.40
2019-05-06T22:41:13.418Z,93.60
2019-05-06T22:43:42.480Z,93.80
2019-05-06T22:46:12.356Z,94.10
2019-05-06T22:48:43.376Z,94.50
2019-05-06T22:51:12.572Z,94.50
2019-05-06T22:53:42.467Z,95.00
2019-05-06T22:56:14.065Z,95.30
2019-05-06T22:58:43.040Z,95.70
2019-05-06T23:01:49.361Z,96.20
2019-05-06T23:04:21.685Z,96.30
2019-05-06T23:06:50.611Z,96.30
2019-05-06T23:09:19.446Z,96.40
2019-05-06T23:11:48.506Z,96.30
2019-05-06T23:14:28.897Z,96.40
2019-05-06T23:16:47.858Z,96.50
2019-05-06T23:19:16.790Z,96.80
2019-05-06T23:21:45.671Z,97.00
2019-05-06T23:24:14.606Z,97.30
2019-05-06T23:26:43.389Z,97.70
2019-05-06T23:29:13.021Z,97.90
2019-05-06T23:31:42.574Z,98.30
2019-05-06T23:34:12.553Z,98.50
2019-05-06T23:37:19.379Z,98.50
2019-05-06T23:40:36.603Z,98.80
2019-05-06T23:43:42.662Z,99.20
2019-05-06T23:46:48.598Z,99.20
2019-05-06T23:49:53.546Z,99.50
2019-05-06T23:52:58.524Z,99.80
2019-05-06T23:56:06.227Z,99.90
2019-05-06T23:58:35.334Z,99.90
